Terminal Aerodrome Forecast
Issued by NWS St Louis, MO

Home | Current Version | Previous Version | Text Only | Print | Product List | Glossary On
Versions: 1 2 3 4 5 6 7 8 9 10 11 12 13 14 15
293
FTUS43 KLSX 040528
TAFCOU
TAF
KCOU 040528Z 0406/0506 30009KT P6SM BKN035
     FM040900 30006KT P6SM SKC
     FM041400 25007KT P6SM FEW250=

USA.gov is the U.S. government's official web portal to all federal, state and local government web resources and services.